createdAt,value
2023-05-05T00:01:03.034Z,3.13
2023-05-05T00:03:31.267Z,2.43
2023-05-05T00:06:00.696Z,3.17
2023-05-05T00:08:29.416Z,2.67
2023-05-05T00:10:57.606Z,2.67
2023-05-05T00:13:25.995Z,2.87
2023-05-05T00:15:55.109Z,3.00
2023-05-05T00:18:23.310Z,3.30
2023-05-05T00:20:51.498Z,3.30
2023-05-05T00:23:21.103Z,3.60
2023-05-05T00:25:49.186Z,2.93
2023-05-05T00:28:17.180Z,2.47
2023-05-05T00:30:45.303Z,2.80
2023-05-05T00:33:13.326Z,2.70
2023-05-05T00:35:41.622Z,3.00
2023-05-05T00:38:10.209Z,2.67
2023-05-05T00:40:39.538Z,2.80
2023-05-05T00:43:08.156Z,2.77
2023-05-05T00:45:37.287Z,2.57
2023-05-05T00:48:07.004Z,2.03
2023-05-05T00:50:35.573Z,2.50
2023-05-05T00:53:05.879Z,3.23
2023-05-05T00:55:34.977Z,2.37
2023-05-05T00:58:05.082Z,2.80
2023-05-05T01:00:33.282Z,3.00
2023-05-05T01:03:01.617Z,3.13
2023-05-05T01:05:39.129Z,2.53
2023-05-05T01:08:19.358Z,2.63
2023-05-05T01:10:56.432Z,2.50
2023-05-05T01:13:39.528Z,2.77
2023-05-05T01:16:15.876Z,2.63
2023-05-05T01:18:52.591Z,2.90
2023-05-05T01:21:28.026Z,2.50
2023-05-05T01:24:25.286Z,2.80
2023-05-05T01:27:06.581Z,2.30
2023-05-05T01:30:03.279Z,2.57
2023-05-05T01:32:36.864Z,2.83
2023-05-05T01:35:14.901Z,2.50
2023-05-05T01:37:50.310Z,2.60
2023-05-05T01:40:23.867Z,2.00
2023-05-05T01:42:52.394Z,2.90
2023-05-05T01:45:26.013Z,3.10
2023-05-05T01:47:57.309Z,2.30
2023-05-05T01:50:28.771Z,2.13
2023-05-05T01:52:58.618Z,2.07
2023-05-05T01:55:28.448Z,2.40
2023-05-05T01:57:58.660Z,2.37
2023-05-05T02:00:27.479Z,2.30
2023-05-05T02:02:58.137Z,2.43
2023-05-05T02:05:27.647Z,2.80
2023-05-05T02:07:59.949Z,2.13
2023-05-05T02:10:29.910Z,2.37
2023-05-05T02:13:00.088Z,2.43
2023-05-05T02:15:30.036Z,3.10
2023-05-05T02:18:01.267Z,2.50
2023-05-05T02:20:32.230Z,2.70
2023-05-05T02:23:00.373Z,2.80
2023-05-05T02:25:36.933Z,2.63
2023-05-05T02:28:06.432Z,2.63
2023-05-05T02:30:37.597Z,2.57
2023-05-05T02:33:11.356Z,2.70
2023-05-05T02:35:41.947Z,2.73
2023-05-05T02:38:14.713Z,2.10
2023-05-05T02:40:44.558Z,2.70
2023-05-05T02:43:17.730Z,2.47
2023-05-05T02:45:46.205Z,2.50
2023-05-05T02:48:15.981Z,2.27
2023-05-05T02:50:44.024Z,2.40
2023-05-05T02:53:12.166Z,2.40
2023-05-05T02:55:46.566Z,2.33
2023-05-05T02:58:23.208Z,2.50
2023-05-05T03:00:58.645Z,2.70
2023-05-05T03:03:39.166Z,2.53
2023-05-05T03:06:15.051Z,2.73
2023-05-05T03:08:51.575Z,2.70
2023-05-05T03:11:28.944Z,2.20
2023-05-05T03:14:07.136Z,2.30
2023-05-05T03:16:37.383Z,2.60
2023-05-05T03:19:10.058Z,2.40
2023-05-05T03:21:38.414Z,2.10
2023-05-05T03:24:15.274Z,2.90
2023-05-05T03:26:44.254Z,2.10
2023-05-05T03:29:12.195Z,2.57
2023-05-05T03:31:40.524Z,2.13
2023-05-05T03:34:10.123Z,2.00
2023-05-05T03:36:39.759Z,2.80
2023-05-05T03:39:08.138Z,2.80
2023-05-05T03:41:36.322Z,2.40
2023-05-05T03:44:05.018Z,2.10
2023-05-05T03:46:32.969Z,2.30
2023-05-05T03:49:00.956Z,2.30
2023-05-05T03:51:31.463Z,2.30
2023-05-05T03:53:59.532Z,2.30
2023-05-05T03:56:27.568Z,2.20
2023-05-05T03:58:55.664Z,1.80
2023-05-05T04:01:24.211Z,1.97
2023-05-05T04:03:52.559Z,2.40
2023-05-05T04:06:20.813Z,2.10
2023-05-05T04:08:50.246Z,2.20
2023-05-05T04:11:18.280Z,1.77
2023-05-05T04:13:47.015Z,2.20
2023-05-05T04:16:15.111Z,2.40
2023-05-05T04:18:43.104Z,2.33
2023-05-05T04:21:11.175Z,2.43
2023-05-05T04:23:39.166Z,2.23
2023-05-05T04:26:08.556Z,2.40
2023-05-05T04:28:36.582Z,2.27
2023-05-05T04:31:05.296Z,2.00
2023-05-05T04:33:33.337Z,2.00
2023-05-05T04:36:01.324Z,2.63
2023-05-05T04:38:29.443Z,2.40
2023-05-05T04:40:57.398Z,2.73
2023-05-05T04:43:26.705Z,2.30
2023-05-05T04:45:55.082Z,2.33
2023-05-05T04:48:23.173Z,1.73
2023-05-05T04:50:51.231Z,1.83
2023-05-05T04:53:19.306Z,2.20
2023-05-05T04:55:47.406Z,2.43
2023-05-05T04:58:15.452Z,2.03
2023-05-05T05:00:44.818Z,2.23
2023-05-05T05:03:12.824Z,2.30
2023-05-05T05:05:40.864Z,2.10
2023-05-05T05:08:08.876Z,2.83
2023-05-05T05:10:37.234Z,2.40
2023-05-05T05:13:05.370Z,2.20
2023-05-05T05:15:33.449Z,1.97
2023-05-05T05:18:02.859Z,2.30
2023-05-05T05:20:31.644Z,2.87
2023-05-05T05:23:02.001Z,2.40
2023-05-05T05:25:29.993Z,2.60
2023-05-05T05:28:08.960Z,3.00
2023-05-05T05:30:38.088Z,2.50
2023-05-05T05:33:07.883Z,3.20
2023-05-05T05:35:35.999Z,2.67
2023-05-05T05:38:03.977Z,3.50
2023-05-05T05:40:32.244Z,3.40
2023-05-05T05:43:00.220Z,3.63
2023-05-05T05:45:28.218Z,3.70
2023-05-05T05:47:56.340Z,4.57
2023-05-05T05:50:28.453Z,4.00
2023-05-05T05:52:56.538Z,4.10
2023-05-05T05:55:24.543Z,3.60
2023-05-05T05:57:52.533Z,4.30
2023-05-05T06:00:21.084Z,4.20
2023-05-05T06:02:49.244Z,4.50
2023-05-05T06:05:17.617Z,3.93
2023-05-05T06:07:46.942Z,4.20
2023-05-05T06:10:26.406Z,3.73
2023-05-05T06:12:55.817Z,3.80
2023-05-05T06:15:25.369Z,3.70
2023-05-05T06:17:53.483Z,4.30
2023-05-05T06:20:21.586Z,3.03
2023-05-05T06:22:50.984Z,3.70
2023-05-05T06:25:19.041Z,3.43
2023-05-05T06:27:47.115Z,4.00
2023-05-05T06:30:15.797Z,3.50
2023-05-05T06:32:43.817Z,3.43
2023-05-05T06:35:11.979Z,3.70
2023-05-05T06:37:40.016Z,4.10
2023-05-05T06:40:11.451Z,3.63
2023-05-05T06:42:39.436Z,3.47
2023-05-05T06:45:09.135Z,3.57
2023-05-05T06:47:37.451Z,3.30
2023-05-05T06:50:07.133Z,3.50
2023-05-05T06:52:35.352Z,3.47
2023-05-05T06:55:03.726Z,3.20
2023-05-05T06:57:33.020Z,3.77
2023-05-05T07:00:01.190Z,3.73
2023-05-05T07:02:29.174Z,3.67
2023-05-05T07:04:57.168Z,3.40
2023-05-05T07:07:25.235Z,3.03
2023-05-05T07:09:53.323Z,3.00
2023-05-05T07:12:21.784Z,3.60
2023-05-05T07:14:51.381Z,2.97
2023-05-05T07:17:19.643Z,3.00
2023-05-05T07:19:48.310Z,3.40
2023-05-05T07:22:16.303Z,3.87
2023-05-05T07:24:44.247Z,4.10
2023-05-05T07:27:12.346Z,4.03
2023-05-05T07:29:40.430Z,5.00
2023-05-05T07:32:09.884Z,6.97
2023-05-05T07:34:38.149Z,11.40
2023-05-05T07:37:06.238Z,10.70
2023-05-05T07:39:34.787Z,13.70
2023-05-05T07:42:02.835Z,17.00
2023-05-05T07:44:31.686Z,16.67
2023-05-05T07:46:59.875Z,17.13
2023-05-05T07:49:29.255Z,19.50
2023-05-05T07:51:57.303Z,20.67
2023-05-05T07:54:26.922Z,19.77
2023-05-05T07:56:54.954Z,19.33
2023-05-05T07:59:22.972Z,17.27
2023-05-05T08:01:52.060Z,16.40
2023-05-05T08:04:21.131Z,17.20
2023-05-05T08:06:50.461Z,16.33
2023-05-05T08:09:18.471Z,14.00
2023-05-05T08:11:46.424Z,12.90
2023-05-05T08:14:15.135Z,12.40
2023-05-05T08:16:43.284Z,11.57
2023-05-05T08:19:25.078Z,13.60
2023-05-05T08:22:00.024Z,9.97
2023-05-05T08:24:29.337Z,11.57
2023-05-05T08:26:57.605Z,8.70
2023-05-05T08:29:25.881Z,9.63
2023-05-05T08:31:54.282Z,8.30
2023-05-05T08:34:22.415Z,7.20
2023-05-05T08:36:50.856Z,8.70
2023-05-05T08:39:20.273Z,7.80
2023-05-05T08:41:48.421Z,7.50
2023-05-05T08:44:16.646Z,6.77
2023-05-05T08:46:44.821Z,8.10
2023-05-05T08:49:17.070Z,7.57
2023-05-05T08:51:46.686Z,6.37
2023-05-05T08:54:20.787Z,7.23
2023-05-05T08:56:51.797Z,6.50
2023-05-05T08:59:24.071Z,5.83
2023-05-05T09:01:54.169Z,7.70
2023-05-05T09:04:22.794Z,5.80
2023-05-05T09:06:51.012Z,6.80
2023-05-05T09:09:21.195Z,6.50
2023-05-05T09:11:49.402Z,5.47
2023-05-05T09:14:17.360Z,6.63
2023-05-05T09:16:45.504Z,7.10
2023-05-05T09:19:13.544Z,7.87
2023-05-05T09:21:48.734Z,7.20
2023-05-05T09:24:16.773Z,6.77
2023-05-05T09:26:48.024Z,6.50
2023-05-05T09:29:20.308Z,7.60
2023-05-05T09:32:05.406Z,7.03
2023-05-05T09:34:35.808Z,8.37
2023-05-05T09:37:04.397Z,7.43
2023-05-05T09:39:32.542Z,7.50
2023-05-05T09:42:03.496Z,8.03
2023-05-05T09:44:36.269Z,7.67
2023-05-05T09:47:09.394Z,7.10
2023-05-05T09:49:43.164Z,6.70
2023-05-05T09:52:15.756Z,6.80
2023-05-05T09:54:44.811Z,8.23
2023-05-05T09:57:30.231Z,10.17
2023-05-05T10:00:00.321Z,6.80
2023-05-05T10:02:34.004Z,7.07
2023-05-05T10:05:13.993Z,7.40
2023-05-05T10:07:44.014Z,7.30
2023-05-05T10:10:13.943Z,6.17
2023-05-05T10:12:43.827Z,6.60
2023-05-05T10:15:13.710Z,6.07
2023-05-05T10:18:02.270Z,5.40
2023-05-05T10:20:36.143Z,5.43
2023-05-05T10:23:09.155Z,4.90
2023-05-05T10:25:43.661Z,5.40
2023-05-05T10:28:22.115Z,5.20
2023-05-05T10:30:53.436Z,6.10
2023-05-05T10:33:32.010Z,5.90
2023-05-05T10:36:05.199Z,6.67
2023-05-05T10:38:33.916Z,6.20
2023-05-05T10:41:02.925Z,5.37
2023-05-05T10:43:32.898Z,5.67
2023-05-05T10:46:01.463Z,5.40
2023-05-05T10:48:37.353Z,6.03
2023-05-05T10:51:35.352Z,6.40
2023-05-05T10:54:14.747Z,6.70
2023-05-05T10:56:44.039Z,4.83
2023-05-05T10:59:43.426Z,4.70
2023-05-05T11:02:25.989Z,5.20
2023-05-05T11:05:14.921Z,5.40
2023-05-05T11:07:43.627Z,4.03
2023-05-05T11:10:13.799Z,4.33
2023-05-05T11:13:18.614Z,5.17
2023-05-05T11:15:49.170Z,6.50
2023-05-05T11:18:36.379Z,6.40
2023-05-05T11:21:16.510Z,6.57
2023-05-05T11:23:50.290Z,6.07
2023-05-05T11:26:20.395Z,5.33
2023-05-05T11:29:03.291Z,5.17
2023-05-05T11:31:33.399Z,4.43
2023-05-05T11:34:28.444Z,4.80
2023-05-05T11:37:04.028Z,4.23
2023-05-05T11:39:49.424Z,3.90
2023-05-05T11:42:26.096Z,4.20
2023-05-05T11:44:55.105Z,4.70
2023-05-05T11:47:32.206Z,4.13
2023-05-05T11:50:17.168Z,3.80
2023-05-05T11:52:45.483Z,3.97
2023-05-05T11:55:13.507Z,3.77
2023-05-05T11:57:41.558Z,4.20
2023-05-05T12:00:10.962Z,4.13
2023-05-05T12:02:40.625Z,3.90
2023-05-05T12:05:09.164Z,4.60
2023-05-05T12:07:37.303Z,3.90
2023-05-05T12:10:06.467Z,4.20
2023-05-05T12:12:37.275Z,3.90
2023-05-05T12:15:06.836Z,3.40
2023-05-05T12:17:46.012Z,4.30
2023-05-05T12:20:14.580Z,3.87
2023-05-05T12:22:43.690Z,3.33
2023-05-05T12:25:12.073Z,3.60
2023-05-05T12:27:41.178Z,3.80
2023-05-05T12:30:18.458Z,3.40
2023-05-05T12:32:47.900Z,3.90
2023-05-05T12:35:16.929Z,3.10
2023-05-05T12:37:45.393Z,4.00
2023-05-05T12:40:48.608Z,3.50
2023-05-05T12:43:28.532Z,3.13
2023-05-05T12:46:08.614Z,3.40
2023-05-05T12:48:40.264Z,3.63
2023-05-05T12:51:17.181Z,3.10
2023-05-05T12:53:45.563Z,3.47
2023-05-05T12:56:47.574Z,3.10
2023-05-05T12:59:30.791Z,3.10
2023-05-05T13:02:01.289Z,2.90
2023-05-05T13:04:31.052Z,3.50
2023-05-05T13:07:11.655Z,2.80
2023-05-05T13:09:39.924Z,3.37
2023-05-05T13:12:11.525Z,3.10
2023-05-05T13:14:39.992Z,3.03
2023-05-05T13:17:07.995Z,3.10
2023-05-05T13:19:41.891Z,2.50
2023-05-05T13:22:10.785Z,3.20
2023-05-05T13:24:50.563Z,2.90
2023-05-05T13:27:20.435Z,3.70
2023-05-05T13:29:48.429Z,3.30
2023-05-05T13:32:16.530Z,3.00
2023-05-05T13:34:45.841Z,3.10
2023-05-05T13:37:13.836Z,3.30
2023-05-05T13:39:41.901Z,3.20
2023-05-05T13:42:09.897Z,3.20
2023-05-05T13:44:37.861Z,3.10
2023-05-05T13:47:06.059Z,3.40
2023-05-05T13:49:34.264Z,2.80
2023-05-05T13:52:03.652Z,7.27
2023-05-05T13:54:31.714Z,5.00
2023-05-05T13:56:59.986Z,4.67
2023-05-05T13:59:28.194Z,3.50
2023-05-05T14:01:56.284Z,3.60
2023-05-05T14:04:24.342Z,3.53
2023-05-05T14:06:53.260Z,4.00
2023-05-05T14:09:22.891Z,3.10
2023-05-05T14:11:50.885Z,3.70
2023-05-05T14:14:19.599Z,2.87
2023-05-05T14:16:50.034Z,3.40
2023-05-05T14:19:18.371Z,3.10
2023-05-05T14:21:46.458Z,2.83
2023-05-05T14:24:14.401Z,3.47
2023-05-05T14:26:43.706Z,3.13
2023-05-05T14:29:11.683Z,2.87
2023-05-05T14:31:39.663Z,2.60
2023-05-05T14:34:07.681Z,3.30
2023-05-05T14:36:35.682Z,2.60
2023-05-05T14:39:03.730Z,2.70
2023-05-05T14:41:31.754Z,2.90
2023-05-05T14:44:01.063Z,2.97
2023-05-05T14:46:29.165Z,2.53
2023-05-05T14:48:57.682Z,2.80
2023-05-05T14:51:25.774Z,2.50
2023-05-05T14:53:53.736Z,2.60
2023-05-05T14:56:22.567Z,2.67
2023-05-05T14:58:50.514Z,2.70
2023-05-05T15:01:20.552Z,2.70
2023-05-05T15:03:48.629Z,3.23
2023-05-05T15:06:16.839Z,2.77
2023-05-05T15:08:44.795Z,2.70
2023-05-05T15:11:13.692Z,2.20
2023-05-05T15:13:42.080Z,2.43
2023-05-05T15:16:10.156Z,2.80
2023-05-05T15:18:39.476Z,2.40
2023-05-05T15:21:07.606Z,2.53
2023-05-05T15:23:35.689Z,2.60
2023-05-05T15:26:04.278Z,2.30
2023-05-05T15:28:32.384Z,3.00
2023-05-05T15:31:02.486Z,2.40
2023-05-05T15:33:31.336Z,2.43
2023-05-05T15:36:00.838Z,2.17
2023-05-05T15:38:29.838Z,2.47
2023-05-05T15:40:57.807Z,2.30
2023-05-05T15:43:26.053Z,2.37
2023-05-05T15:45:55.085Z,1.80
2023-05-05T15:48:23.090Z,2.90
2023-05-05T15:50:51.078Z,2.00
2023-05-05T15:53:20.489Z,2.90
2023-05-05T15:55:48.504Z,2.60
2023-05-05T15:58:16.418Z,2.17
2023-05-05T16:00:44.447Z,2.20
2023-05-05T16:03:12.594Z,2.10
2023-05-05T16:05:41.661Z,2.03
2023-05-05T16:08:10.767Z,2.03
2023-05-05T16:10:40.167Z,2.00
2023-05-05T16:13:08.252Z,1.97
2023-05-05T16:15:36.379Z,1.77
2023-05-05T16:18:04.648Z,1.97
2023-05-05T16:20:32.762Z,2.07
2023-05-05T16:23:01.137Z,2.07
2023-05-05T16:25:29.153Z,2.30
2023-05-05T16:28:00.005Z,2.03
2023-05-05T16:30:29.203Z,2.17
2023-05-05T16:32:57.254Z,2.30
2023-05-05T16:35:25.461Z,1.40
2023-05-05T16:37:53.468Z,1.97
2023-05-05T16:40:21.519Z,1.80
2023-05-05T16:42:49.495Z,1.83
2023-05-05T16:45:18.996Z,1.80
2023-05-05T16:47:47.067Z,1.97
2023-05-05T16:50:16.464Z,1.80
2023-05-05T16:52:44.472Z,2.10
2023-05-05T16:55:12.562Z,2.13
2023-05-05T16:57:40.649Z,2.20
2023-05-05T17:00:10.239Z,1.20
2023-05-05T17:02:39.616Z,2.50
2023-05-05T17:05:08.656Z,1.63
2023-05-05T17:07:36.983Z,1.50
2023-05-05T17:10:06.290Z,2.20
2023-05-05T17:12:34.294Z,2.57
2023-05-05T17:15:02.320Z,1.80
2023-05-05T17:17:30.304Z,1.70
2023-05-05T17:19:59.733Z,2.10
2023-05-05T17:22:27.973Z,1.50
2023-05-05T17:24:56.113Z,2.40
2023-05-05T17:27:24.220Z,2.23
2023-05-05T17:29:52.236Z,2.20
2023-05-05T17:32:20.199Z,2.00
2023-05-05T17:34:48.236Z,1.90
2023-05-05T17:37:17.477Z,2.10
2023-05-05T17:39:45.428Z,1.93
2023-05-05T17:42:13.372Z,2.37
2023-05-05T17:44:41.294Z,2.67
2023-05-05T17:47:10.464Z,2.57
2023-05-05T17:49:38.391Z,4.33
2023-05-05T17:52:06.484Z,2.87
2023-05-05T17:54:35.875Z,2.93
2023-05-05T17:57:04.145Z,3.43
2023-05-05T17:59:32.700Z,3.23
2023-05-05T18:02:00.782Z,3.00
2023-05-05T18:04:28.848Z,2.50
2023-05-05T18:06:56.857Z,2.30
2023-05-05T18:09:24.992Z,2.93
2023-05-05T18:11:55.462Z,3.17
2023-05-05T18:14:23.796Z,2.77
2023-05-05T18:16:52.690Z,2.40
2023-05-05T18:19:22.996Z,2.23
2023-05-05T18:21:54.144Z,2.13
2023-05-05T18:24:22.129Z,2.83
2023-05-05T18:26:51.996Z,2.60
2023-05-05T18:29:22.557Z,2.10
2023-05-05T18:31:54.655Z,1.97
2023-05-05T18:34:22.983Z,2.23
2023-05-05T18:36:54.102Z,2.90
2023-05-05T18:39:22.103Z,2.20
2023-05-05T18:41:50.174Z,2.27
2023-05-05T18:44:19.257Z,2.50
2023-05-05T18:46:49.010Z,2.10
2023-05-05T18:49:17.209Z,2.30
2023-05-05T18:51:45.292Z,2.77
2023-05-05T18:54:13.323Z,1.83
2023-05-05T18:56:41.354Z,1.90
2023-05-05T18:59:09.345Z,1.97
2023-05-05T19:01:37.300Z,1.87
2023-05-05T19:04:15.583Z,2.07
2023-05-05T19:06:52.526Z,2.10
2023-05-05T19:09:20.855Z,1.97
2023-05-05T19:11:48.914Z,2.40
2023-05-05T19:14:17.673Z,2.50
2023-05-05T19:16:45.841Z,2.07
2023-05-05T19:19:15.214Z,2.03
2023-05-05T19:21:43.298Z,2.70
2023-05-05T19:24:11.523Z,1.73
2023-05-05T19:26:39.561Z,1.57
2023-05-05T19:29:07.756Z,2.03
2023-05-05T19:31:35.763Z,2.00
2023-05-05T19:34:05.974Z,2.07
2023-05-05T19:36:35.741Z,2.00
2023-05-05T19:39:05.682Z,2.10
2023-05-05T19:41:35.162Z,1.70
2023-05-05T19:44:03.263Z,1.63
2023-05-05T19:46:31.326Z,1.97
2023-05-05T19:48:59.269Z,1.80
2023-05-05T19:51:27.380Z,1.60
2023-05-05T19:53:56.766Z,1.70
2023-05-05T19:56:24.814Z,1.87
2023-05-05T19:58:58.885Z,1.93
2023-05-05T20:01:28.205Z,2.20
2023-05-05T20:03:57.646Z,1.67
2023-05-05T20:06:26.882Z,1.60
2023-05-05T20:08:56.414Z,2.10
2023-05-05T20:11:26.047Z,1.40
2023-05-05T20:13:53.999Z,1.50
2023-05-05T20:16:22.507Z,1.87
2023-05-05T20:18:50.941Z,1.93
2023-05-05T20:21:19.290Z,1.70
2023-05-05T20:23:48.340Z,1.90
2023-05-05T20:26:17.801Z,2.00
2023-05-05T20:28:46.013Z,1.77
2023-05-05T20:31:15.884Z,1.50
2023-05-05T20:33:43.942Z,1.23
2023-05-05T20:36:12.116Z,1.70
2023-05-05T20:38:40.137Z,1.60
2023-05-05T20:41:08.270Z,1.53
2023-05-05T20:43:37.990Z,1.63
2023-05-05T20:46:06.082Z,1.67
2023-05-05T20:48:34.003Z,1.93
2023-05-05T20:51:04.742Z,1.70
2023-05-05T20:53:33.303Z,3.07
2023-05-05T20:56:01.409Z,3.50
2023-05-05T20:58:30.956Z,2.47
2023-05-05T21:01:00.280Z,1.60
2023-05-05T21:03:29.639Z,2.23
2023-05-05T21:05:57.776Z,2.20
2023-05-05T21:08:25.716Z,2.23
2023-05-05T21:10:53.843Z,2.50
2023-05-05T21:13:21.887Z,2.07
2023-05-05T21:15:51.093Z,2.70
2023-05-05T21:18:20.649Z,2.40
2023-05-05T21:20:48.635Z,2.83
2023-05-05T21:23:16.671Z,2.00
2023-05-05T21:25:44.851Z,2.83
2023-05-05T21:28:12.846Z,3.30
2023-05-05T21:30:40.877Z,2.60
2023-05-05T21:33:08.909Z,2.50
2023-05-05T21:35:38.678Z,2.70
2023-05-05T21:38:06.859Z,1.90
2023-05-05T21:40:35.056Z,2.67
2023-05-05T21:43:03.061Z,1.80
2023-05-05T21:45:31.289Z,2.67
2023-05-05T21:47:59.320Z,2.17
2023-05-05T21:50:28.910Z,2.00
2023-05-05T21:52:58.903Z,2.00
2023-05-05T21:55:26.922Z,2.50
2023-05-05T21:57:54.901Z,1.70
2023-05-05T22:00:23.081Z,2.40
2023-05-05T22:02:51.258Z,1.90
2023-05-05T22:05:19.510Z,3.00
2023-05-05T22:07:47.552Z,2.27
2023-05-05T22:10:17.124Z,2.10
2023-05-05T22:12:45.290Z,2.40
2023-05-05T22:15:13.256Z,2.13
2023-05-05T22:17:41.962Z,2.70
2023-05-05T22:20:11.228Z,2.90
2023-05-05T22:22:39.620Z,2.53
2023-05-05T22:25:08.881Z,1.73
2023-05-05T22:27:38.389Z,2.40
2023-05-05T22:30:09.544Z,2.03
2023-05-05T22:32:38.530Z,1.90
2023-05-05T22:35:08.191Z,2.50
2023-05-05T22:37:36.384Z,2.47
2023-05-05T22:40:05.396Z,2.10
2023-05-05T22:42:33.562Z,2.00
2023-05-05T22:45:02.850Z,2.03
2023-05-05T22:47:30.975Z,2.30
2023-05-05T22:49:58.990Z,2.30
2023-05-05T22:52:28.761Z,1.97
2023-05-05T22:54:56.891Z,2.40
2023-05-05T22:57:25.046Z,2.50
2023-05-05T22:59:53.182Z,2.43
2023-05-05T23:02:22.719Z,2.13
2023-05-05T23:04:51.064Z,2.40
2023-05-05T23:07:19.432Z,1.73
2023-05-05T23:09:47.834Z,1.70
2023-05-05T23:12:15.964Z,1.90
2023-05-05T23:14:43.996Z,2.07
2023-05-05T23:17:12.186Z,1.90
2023-05-05T23:19:41.514Z,1.97
2023-05-05T23:22:09.494Z,1.73
2023-05-05T23:24:37.505Z,2.37
2023-05-05T23:27:05.465Z,1.70
2023-05-05T23:29:33.688Z,2.20
2023-05-05T23:32:01.817Z,1.70
2023-05-05T23:34:29.812Z,2.20
2023-05-05T23:36:59.216Z,2.00
2023-05-05T23:39:27.176Z,1.37
2023-05-05T23:41:55.163Z,2.10
2023-05-05T23:44:23.179Z,2.53
2023-05-05T23:46:51.129Z,2.27
2023-05-05T23:49:19.251Z,1.90
2023-05-05T23:51:47.293Z,1.60
2023-05-05T23:54:16.717Z,2.30
2023-05-05T23:56:47.622Z,2.60
2023-05-05T23:59:15.659Z,1.83
